Time;durP1;ratioP1;P1;durP2;ratioP2;P2;SDS_P1;SDS_P2;PMS_P1;PMS_P2;Temp;Humidity;BMP_temperature;BMP_pressure;BME280_temperature;BME280_humidity;BME280_pressure;Samples;Min_cycle;Max_cycle;Signal;HPM_P1;HPM_P2
2022/10/16 00:01:43;;;;;;;8.48;2.00;;;;;;;;;;5072968;28;20086;-68
2022/10/16 00:04:10;;;;;;;12.60;1.92;;;;;;;;;;5073324;28;20177;-68
2022/10/16 00:06:37;;;;;;;9.98;2.20;;;;;;;;;;5072890;28;20051;-68
2022/10/16 00:09:03;;;;;;;10.10;2.25;;;;;;;;;;5072992;28;20052;-67
2022/10/16 00:11:33;;;;;;;10.38;1.63;;;;;;;;;;5072899;28;20049;-67
2022/10/16 00:14:00;;;;;;;11.63;2.10;;;;;;;;;;5072902;28;20041;-67
2022/10/16 00:16:28;;;;;;;7.95;1.85;;;;;;;;;;5072748;28;20484;-67
2022/10/16 00:18:55;;;;;;;15.38;1.92;;;;;;;;;;5072968;28;20048;-68
2022/10/16 00:21:26;;;;;;;10.60;2.10;;;;;;;;;;5072615;28;20048;-67
2022/10/16 00:23:53;;;;;;;11.57;1.60;;;;;;;;;;5072773;28;20048;-67
2022/10/16 00:26:20;;;;;;;14.27;2.40;;;;;;;;;;5072662;28;20056;-67
2022/10/16 00:28:47;;;;;;;12.18;1.67;;;;;;;;;;5072600;28;20052;-67
2022/10/16 00:31:14;;;;;;;10.07;1.67;;;;;;;;;;5072670;28;20154;-67
2022/10/16 00:33:40;;;;;;;8.77;1.67;;;;;;;;;;5072452;28;20404;-68
2022/10/16 00:36:09;;;;;;;10.70;1.83;;;;;;;;;;5072257;28;20056;-67
2022/10/16 00:38:35;;;;;;;9.50;2.30;;;;;;;;;;5072538;28;20045;-67
2022/10/16 00:41:01;;;;;;;9.95;1.92;;;;;;;;;;5072364;28;20040;-68
2022/10/16 00:43:54;;;;;;;8.75;1.85;;;;;;;;;;5072558;28;20048;-68
2022/10/16 00:46:40;;;;;;;10.23;1.92;;;;;;;;;;5070202;28;20044;-68
2022/10/16 00:49:09;;;;;;;9.93;1.77;;;;;;;;;;5071962;28;20059;-68
2022/10/16 00:51:36;;;;;;;12.07;1.65;;;;;;;;;;5071838;28;20051;-68
2022/10/16 00:54:04;;;;;;;8.30;1.63;;;;;;;;;;5072013;28;20076;-68
2022/10/16 00:56:31;;;;;;;8.65;1.67;;;;;;;;;;5072000;28;20048;-68
2022/10/16 00:58:59;;;;;;;8.65;1.77;;;;;;;;;;5072075;28;20530;-68
2022/10/16 01:01:25;;;;;;;11.50;1.77;;;;;;;;;;5072182;28;20052;-68
2022/10/16 01:03:51;;;;;;;10.63;1.33;;;;;;;;;;5072148;28;20479;-68
2022/10/16 01:06:28;;;;;;;7.20;1.02;;;;;;;;;;5071867;28;20052;-68
2022/10/16 01:09:06;;;;;;;7.55;1.40;;;;;;;;;;5072184;28;20056;-68
2022/10/16 01:11:35;;;;;;;8.80;1.35;;;;;;;;;;5072082;28;20131;-68
2022/10/16 01:14:06;;;;;;;9.60;1.30;;;;;;;;;;5072006;28;20049;-68
2022/10/16 01:16:42;;;;;;;8.52;1.15;;;;;;;;;;5066395;28;20040;-68
2022/10/16 01:19:13;;;;;;;7.35;1.55;;;;;;;;;;5071215;28;20064;-68
2022/10/16 01:21:42;;;;;;;6.38;1.40;;;;;;;;;;5071041;28;20084;-68
2022/10/16 01:24:25;;;;;;;7.50;1.40;;;;;;;;;;5071313;28;20536;-68
2022/10/16 01:27:10;;;;;;;7.32;1.30;;;;;;;;;;5071538;28;20052;-68
2022/10/16 01:29:41;;;;;;;9.32;1.50;;;;;;;;;;5071835;28;20056;-68
2022/10/16 01:32:19;;;;;;;6.40;1.25;;;;;;;;;;5071814;28;20052;-68
2022/10/16 01:35:21;;;;;;;6.97;1.52;;;;;;;;;;5071377;28;20068;-69
2022/10/16 01:37:48;;;;;;;6.93;1.30;;;;;;;;;;5029176;28;20060;-68
2022/10/16 01:40:17;;;;;;;7.55;1.10;;;;;;;;;;5063018;28;20397;-69
2022/10/16 01:42:48;;;;;;;5.22;1.20;;;;;;;;;;5071626;28;20049;-69
2022/10/16 01:45:17;;;;;;;6.10;1.20;;;;;;;;;;5071487;28;20492;-69
2022/10/16 01:47:44;;;;;;;7.72;1.35;;;;;;;;;;5071355;28;20052;-68
2022/10/16 01:50:12;;;;;;;9.02;1.75;;;;;;;;;;5071458;28;20087;-69
2022/10/16 01:52:40;;;;;;;8.63;1.38;;;;;;;;;;5071347;28;20058;-68
2022/10/16 01:55:07;;;;;;;6.47;0.82;;;;;;;;;;5071325;28;20052;-68
2022/10/16 01:57:34;;;;;;;;;;;;;;;;;;5071865;28;20647;-68
2022/10/16 02:00:02;;;;;;;6.82;1.35;;;;;;;;;;5071618;28;19924;-68
2022/10/16 02:02:30;;;;;;;7.90;1.35;;;;;;;;;;5074836;28;20052;-68
2022/10/16 02:05:04;;;;;;;7.45;1.35;;;;;;;;;;5075598;28;20483;-68
2022/10/16 02:07:31;;;;;;;7.85;1.10;;;;;;;;;;5075602;28;20142;-69
2022/10/16 02:09:57;;;;;;;5.40;1.08;;;;;;;;;;5075345;28;20059;-68
2022/10/16 02:12:29;;;;;;;8.10;1.60;;;;;;;;;;5075265;28;20049;-69
2022/10/16 02:14:55;;;;;;;9.57;1.50;;;;;;;;;;5075306;28;20051;-68
2022/10/16 02:17:22;;;;;;;9.27;1.48;;;;;;;;;;5075067;28;20040;-68
2022/10/16 02:19:50;;;;;;;7.10;1.38;;;;;;;;;;5074970;28;20519;-68
2022/10/16 02:22:36;;;;;;;8.65;1.65;;;;;;;;;;5075318;28;20044;-69
2022/10/16 02:25:02;;;;;;;9.38;1.35;;;;;;;;;;5074846;28;20066;-69
2022/10/16 02:27:49;;;;;;;8.55;1.42;;;;;;;;;;5075035;28;20048;-69
2022/10/16 02:30:30;;;;;;;7.05;1.30;;;;;;;;;;5074800;28;20052;-69
2022/10/16 02:32:57;;;;;;;6.90;1.10;;;;;;;;;;5074862;28;20663;-69
2022/10/16 02:35:24;;;;;;;8.25;1.55;;;;;;;;;;5074599;28;20048;-68
2022/10/16 02:37:51;;;;;;;9.40;1.40;;;;;;;;;;5074727;28;20053;-68
2022/10/16 02:40:18;;;;;;;10.80;1.67;;;;;;;;;;5074572;28;20052;-68
2022/10/16 02:42:51;;;;;;;7.97;1.40;;;;;;;;;;5074898;28;20048;-68
2022/10/16 02:45:18;;;;;;;9.60;1.20;;;;;;;;;;5075155;28;20052;-68
2022/10/16 02:47:44;;;;;;;7.63;1.90;;;;;;;;;;5074784;28;20044;-69
2022/10/16 02:50:11;;;;;;;8.55;1.98;;;;;;;;;;5074540;28;20079;-69
2022/10/16 02:52:37;;;;;;;6.13;1.55;;;;;;;;;;5068580;28;20052;-69
2022/10/16 02:55:04;;;;;;;7.88;1.63;;;;;;;;;;5073606;28;20127;-69
2022/10/16 02:57:31;;;;;;;5.45;0.93;;;;;;;;;;5074498;28;20036;-68
2022/10/16 02:59:57;;;;;;;6.50;1.35;;;;;;;;;;5074325;28;20049;-68
2022/10/16 03:02:24;;;;;;;9.90;2.03;;;;;;;;;;5074244;28;20040;-68
2022/10/16 03:04:50;;;;;;;6.45;1.00;;;;;;;;;;5074293;28;20044;-68
2022/10/16 03:07:17;;;;;;;8.57;1.25;;;;;;;;;;5074190;28;20059;-69
2022/10/16 03:09:43;;;;;;;9.15;1.60;;;;;;;;;;5073978;28;20060;-69
2022/10/16 03:12:11;;;;;;;6.32;1.33;;;;;;;;;;5074014;28;20055;-69
2022/10/16 03:14:39;;;;;;;10.60;1.60;;;;;;;;;;5073981;28;20045;-69
2022/10/16 03:17:06;;;;;;;;;;;;;;;;;;5074445;28;20066;-69
2022/10/16 03:19:32;;;;;;;9.32;1.50;;;;;;;;;;5074041;28;19928;-69
2022/10/16 03:21:58;;;;;;;10.95;1.63;;;;;;;;;;5074186;28;20128;-69
2022/10/16 03:24:25;;;;;;;8.70;1.45;;;;;;;;;;5074149;28;20055;-69
2022/10/16 03:26:51;;;;;;;11.55;2.05;;;;;;;;;;5073702;28;20066;-69
2022/10/16 03:29:18;;;;;;;9.82;1.25;;;;;;;;;;5074001;28;20435;-69
2022/10/16 03:31:44;;;;;;;4.95;0.90;;;;;;;;;;5073763;28;20066;-69
2022/10/16 03:34:10;;;;;;;8.93;1.65;;;;;;;;;;5073633;28;20048;-68
2022/10/16 03:36:37;;;;;;;6.40;1.17;;;;;;;;;;5073471;28;20518;-69
2022/10/16 03:39:03;;;;;;;7.85;1.33;;;;;;;;;;5073498;28;20472;-68
2022/10/16 03:41:29;;;;;;;7.85;1.50;;;;;;;;;;5073529;28;20044;-69
2022/10/16 03:43:56;;;;;;;9.35;2.00;;;;;;;;;;5073536;28;20049;-69
2022/10/16 03:46:22;;;;;;;8.27;1.45;;;;;;;;;;5073529;28;20063;-69
2022/10/16 03:48:48;;;;;;;9.63;1.73;;;;;;;;;;5073333;28;20053;-69
2022/10/16 03:51:15;;;;;;;6.85;1.50;;;;;;;;;;5073592;28;20044;-69
2022/10/16 03:53:41;;;;;;;6.05;1.25;;;;;;;;;;5073625;28;20214;-69
2022/10/16 03:56:08;;;;;;;10.52;1.70;;;;;;;;;;5072191;28;20047;-70
2022/10/16 03:58:34;;;;;;;7.50;1.88;;;;;;;;;;5073536;28;20087;-69
2022/10/16 04:01:00;;;;;;;11.10;2.10;;;;;;;;;;5073255;28;20045;-69
2022/10/16 04:03:27;;;;;;;6.25;1.17;;;;;;;;;;5073420;28;20068;-69
2022/10/16 04:05:53;;;;;;;8.18;1.25;;;;;;;;;;5073105;28;20055;-70
2022/10/16 04:08:20;;;;;;;7.28;1.48;;;;;;;;;;5073050;28;20049;-69
2022/10/16 04:10:46;;;;;;;10.05;1.58;;;;;;;;;;5073005;28;20056;-69
2022/10/16 04:13:13;;;;;;;8.65;1.35;;;;;;;;;;5073155;28;20056;-70
2022/10/16 04:15:39;;;;;;;9.38;1.35;;;;;;;;;;5073377;28;20384;-68
2022/10/16 04:18:06;;;;;;;8.57;1.23;;;;;;;;;;5072798;28;20041;-68
2022/10/16 04:20:33;;;;;;;8.43;1.45;;;;;;;;;;5073019;28;20044;-69
2022/10/16 04:22:59;;;;;;;9.82;1.75;;;;;;;;;;5072894;28;20080;-68
2022/10/16 04:25:25;;;;;;;6.28;1.33;;;;;;;;;;5065034;28;20040;-69
2022/10/16 04:27:53;;;;;;;6.55;1.40;;;;;;;;;;5065561;28;20057;-68
2022/10/16 04:30:20;;;;;;;12.05;1.77;;;;;;;;;;5072546;28;20051;-69
2022/10/16 04:32:50;;;;;;;8.83;1.33;;;;;;;;;;5072603;28;20440;-69
2022/10/16 04:35:17;;;;;;;6.82;1.20;;;;;;;;;;5072376;28;20132;-69
2022/10/16 04:37:43;;;;;;;9.73;1.38;;;;;;;;;;5073095;28;20048;-69
2022/10/16 04:40:10;;;;;;;5.93;1.30;;;;;;;;;;5072613;28;20050;-68
2022/10/16 04:42:36;;;;;;;3.22;0.80;;;;;;;;;;5072390;28;20692;-69
2022/10/16 04:45:03;;;;;;;7.78;1.35;;;;;;;;;;5072101;28;20053;-69
2022/10/16 04:47:30;;;;;;;8.57;1.50;;;;;;;;;;5072535;28;20045;-69
2022/10/16 04:49:57;;;;;;;8.10;1.23;;;;;;;;;;5072496;28;20083;-69
2022/10/16 04:52:24;;;;;;;7.45;1.45;;;;;;;;;;5072058;28;20537;-69
2022/10/16 04:54:51;;;;;;;;;;;;;;;;;;5072467;28;20522;-69
2022/10/16 04:57:17;;;;;;;8.32;1.30;;;;;;;;;;5072078;28;19932;-69
2022/10/16 04:59:43;;;;;;;8.77;1.35;;;;;;;;;;5071962;28;20500;-69
2022/10/16 05:02:10;;;;;;;9.18;1.52;;;;;;;;;;5072132;28;20381;-69
2022/10/16 05:04:36;;;;;;;10.02;1.63;;;;;;;;;;5072894;28;20041;-70
2022/10/16 05:07:03;;;;;;;9.02;1.23;;;;;;;;;;5071932;28;20063;-70
2022/10/16 05:09:29;;;;;;;7.50;1.55;;;;;;;;;;5071965;28;20048;-70
2022/10/16 05:11:55;;;;;;;9.90;1.60;;;;;;;;;;5071891;28;20048;-70
2022/10/16 05:14:22;;;;;;;7.10;1.33;;;;;;;;;;5071748;28;20048;-70
2022/10/16 05:16:48;;;;;;;11.23;1.58;;;;;;;;;;5072031;28;20052;-70
2022/10/16 05:19:15;;;;;;;7.47;1.80;;;;;;;;;;5071809;28;20051;-70
2022/10/16 05:21:52;;;;;;;13.68;1.50;;;;;;;;;;5071885;28;20044;-70
2022/10/16 05:24:19;;;;;;;7.95;1.27;;;;;;;;;;5071761;28;20052;-70
2022/10/16 05:26:45;;;;;;;9.68;2.35;;;;;;;;;;5071580;28;20063;-70
2022/10/16 05:29:11;;;;;;;7.47;1.50;;;;;;;;;;5071950;28;20052;-70
2022/10/16 05:31:38;;;;;;;4.93;1.20;;;;;;;;;;5071888;28;20052;-70
2022/10/16 05:34:04;;;;;;;10.50;1.90;;;;;;;;;;5071580;28;20143;-70
2022/10/16 05:36:30;;;;;;;15.85;1.85;;;;;;;;;;5071166;28;20052;-70
2022/10/16 05:38:57;;;;;;;9.07;1.52;;;;;;;;;;5071651;28;20051;-70
2022/10/16 05:41:25;;;;;;;13.68;1.77;;;;;;;;;;5071504;28;20048;-69
2022/10/16 05:43:52;;;;;;;12.98;1.95;;;;;;;;;;5071826;28;20041;-70
2022/10/16 05:46:18;;;;;;;7.25;1.40;;;;;;;;;;5071856;28;20048;-70
2022/10/16 05:48:45;;;;;;;9.02;1.75;;;;;;;;;;5071570;28;20048;-70
2022/10/16 05:51:12;;;;;;;8.10;1.33;;;;;;;;;;5071477;28;20056;-69
2022/10/16 05:53:39;;;;;;;6.93;1.55;;;;;;;;;;5071986;28;20058;-70
2022/10/16 05:56:06;;;;;;;7.47;1.50;;;;;;;;;;5071365;28;20484;-70
2022/10/16 05:58:35;;;;;;;11.30;2.33;;;;;;;;;;5071609;28;20048;-70
2022/10/16 06:01:03;;;;;;;13.63;2.30;;;;;;;;;;5071524;28;20048;-70
2022/10/16 06:03:29;;;;;;;11.68;1.80;;;;;;;;;;5071539;28;20043;-69
2022/10/16 06:05:56;;;;;;;7.22;1.45;;;;;;;;;;5071273;28;20049;-70
2022/10/16 06:08:22;;;;;;;10.27;1.58;;;;;;;;;;5071586;28;20061;-70
2022/10/16 06:10:59;;;;;;;9.95;1.95;;;;;;;;;;5071813;28;20052;-70
2022/10/16 06:13:25;;;;;;;10.80;2.38;;;;;;;;;;5071587;28;20055;-70
2022/10/16 06:15:52;;;;;;;12.00;1.90;;;;;;;;;;5071270;28;20080;-69
2022/10/16 06:18:18;;;;;;;15.00;2.25;;;;;;;;;;5071133;28;20048;-70
2022/10/16 06:20:44;;;;;;;10.07;1.92;;;;;;;;;;5071463;28;20055;-70
2022/10/16 06:23:11;;;;;;;7.65;1.67;;;;;;;;;;5071318;28;20055;-70
2022/10/16 06:25:37;;;;;;;8.30;1.80;;;;;;;;;;5071446;28;20048;-69
2022/10/16 06:28:03;;;;;;;14.25;2.10;;;;;;;;;;5071330;28;20048;-70
2022/10/16 06:30:30;;;;;;;13.82;1.75;;;;;;;;;;5071395;28;20123;-70
2022/10/16 06:32:56;;;;;;;15.75;2.58;;;;;;;;;;5069874;28;20547;-70
2022/10/16 06:35:23;;;;;;;9.57;1.88;;;;;;;;;;5070922;28;20088;-69
2022/10/16 06:37:50;;;;;;;15.27;2.38;;;;;;;;;;5071062;28;20055;-70
2022/10/16 06:40:16;;;;;;;17.05;2.28;;;;;;;;;;5070966;28;20047;-70
2022/10/16 06:42:42;;;;;;;7.82;1.83;;;;;;;;;;5070999;28;20045;-69
2022/10/16 06:45:09;;;;;;;12.30;2.05;;;;;;;;;;5071023;28;20064;-69
2022/10/16 06:47:35;;;;;;;8.25;1.73;;;;;;;;;;5071489;28;20055;-70
2022/10/16 06:50:03;;;;;;;6.70;1.70;;;;;;;;;;5074843;28;20419;-69
2022/10/16 06:52:30;;;;;;;11.48;1.70;;;;;;;;;;5074644;28;20051;-69
2022/10/16 06:54:56;;;;;;;10.68;1.75;;;;;;;;;;5074577;28;20088;-70
2022/10/16 06:57:22;;;;;;;9.82;2.38;;;;;;;;;;5074461;28;20044;-70
2022/10/16 06:59:48;;;;;;;8.73;2.13;;;;;;;;;;5069106;28;20060;-69
2022/10/16 07:02:20;;;;;;;11.75;2.30;;;;;;;;;;5073785;28;20086;-69
2022/10/16 07:04:46;;;;;;;13.60;2.08;;;;;;;;;;5073705;28;20076;-68
2022/10/16 07:07:13;;;;;;;10.60;1.50;;;;;;;;;;5073696;28;20052;-68
2022/10/16 07:09:40;;;;;;;9.88;2.22;;;;;;;;;;5073551;28;20053;-68
2022/10/16 07:12:06;;;;;;;12.65;1.70;;;;;;;;;;5055583;28;20041;-68
2022/10/16 07:14:32;;;;;;;10.85;2.25;;;;;;;;;;5053411;28;20385;-69
2022/10/16 07:16:59;;;;;;;12.05;2.08;;;;;;;;;;5052955;28;20116;-69
2022/10/16 07:19:25;;;;;;;10.65;2.13;;;;;;;;;;5052685;28;20481;-69
2022/10/16 07:21:56;;;;;;;10.68;2.10;;;;;;;;;;5052931;28;20053;-70
2022/10/16 07:24:23;;;;;;;13.45;2.35;;;;;;;;;;5052794;28;20403;-74
2022/10/16 07:26:50;;;;;;;14.23;2.50;;;;;;;;;;5055960;28;20051;-72
2022/10/16 07:29:18;;;;;;;9.32;2.15;;;;;;;;;;5073358;28;20053;-71
2022/10/16 07:31:44;;;;;;;;;;;;;;;;;;5063346;28;20049;-68
2022/10/16 07:34:12;;;;;;;11.63;2.10;;;;;;;;;;5051441;28;20011;-69
2022/10/16 07:36:38;;;;;;;9.48;1.92;;;;;;;;;;5050737;28;20059;-70
2022/10/16 07:39:05;;;;;;;8.95;1.77;;;;;;;;;;5052251;28;20385;-68
2022/10/16 07:41:32;;;;;;;6.00;1.10;;;;;;;;;;5061795;28;20040;-69
2022/10/16 07:44:00;;;;;;;7.70;1.52;;;;;;;;;;5061222;28;20049;-70
2022/10/16 07:46:26;;;;;;;11.05;1.70;;;;;;;;;;5056110;28;20052;-71
2022/10/16 07:48:53;;;;;;;13.00;2.17;;;;;;;;;;5073270;28;20052;-71
2022/10/16 07:51:23;;;;;;;10.32;2.13;;;;;;;;;;5070853;28;20785;-71
2022/10/16 07:53:50;;;;;;;8.07;2.20;;;;;;;;;;5072981;28;20052;-79
2022/10/16 07:56:18;;;;;;;12.00;1.87;;;;;;;;;;5052731;28;20513;-74
2022/10/16 07:58:45;;;;;;;10.43;2.25;;;;;;;;;;5052134;28;20282;-76
2022/10/16 08:01:13;;;;;;;10.73;2.03;;;;;;;;;;5054093;28;20530;-77
2022/10/16 08:03:43;;;;;;;10.23;1.98;;;;;;;;;;5071283;28;20120;-70
2022/10/16 08:06:10;;;;;;;11.02;2.63;;;;;;;;;;5058188;28;20493;-70
2022/10/16 08:08:36;;;;;;;9.95;1.98;;;;;;;;;;5052236;28;20072;-68
2022/10/16 08:11:03;;;;;;;8.05;1.95;;;;;;;;;;5058895;28;20116;-68
2022/10/16 08:13:30;;;;;;;9.70;1.70;;;;;;;;;;5052167;28;20051;-71
2022/10/16 08:15:56;;;;;;;6.30;1.97;;;;;;;;;;5059950;28;20048;-71
2022/10/16 08:18:23;;;;;;;10.88;1.90;;;;;;;;;;5072304;28;20510;-69
2022/10/16 08:20:57;;;;;;;8.47;1.97;;;;;;;;;;5072507;28;20047;-68
2022/10/16 08:23:25;;;;;;;6.80;1.88;;;;;;;;;;5072360;28;20044;-68
2022/10/16 08:25:53;;;;;;;9.52;2.22;;;;;;;;;;5072212;28;20462;-67
2022/10/16 08:28:19;;;;;;;8.15;1.92;;;;;;;;;;5072357;28;20496;-70
2022/10/16 08:30:46;;;;;;;5.93;1.33;;;;;;;;;;5058686;28;20124;-70
2022/10/16 08:33:12;;;;;;;7.15;2.15;;;;;;;;;;5052019;28;20060;-68
2022/10/16 08:35:39;;;;;;;7.32;1.50;;;;;;;;;;5068855;28;20056;-69
2022/10/16 08:38:06;;;;;;;9.23;2.38;;;;;;;;;;5054937;28;20044;-70
2022/10/16 08:40:34;;;;;;;8.13;1.73;;;;;;;;;;5051861;28;20048;-65
2022/10/16 08:43:19;;;;;;;6.63;1.55;;;;;;;;;;5064864;28;20045;-69
2022/10/16 08:45:51;;;;;;;9.35;2.00;;;;;;;;;;5071719;28;20492;-70
2022/10/16 08:48:23;;;;;;;10.35;2.03;;;;;;;;;;5055460;28;20049;-77
2022/10/16 08:50:50;;;;;;;7.10;1.90;;;;;;;;;;5049428;28;20057;-72
2022/10/16 08:53:17;;;;;;;;;;;;;;;;;;5051664;28;20504;-73
2022/10/16 08:55:46;;;;;;;6.55;1.65;;;;;;;;;;5052785;28;19929;-74
2022/10/16 08:58:17;;;;;;;7.60;1.50;;;;;;;;;;5071745;28;20094;-71
2022/10/16 09:00:44;;;;;;;8.15;1.65;;;;;;;;;;5071472;28;20056;-73
2022/10/16 09:03:11;;;;;;;10.02;1.70;;;;;;;;;;5070120;28;20040;-75
2022/10/16 09:05:50;;;;;;;10.53;2.07;;;;;;;;;;5064516;28;20051;-75
2022/10/16 09:08:30;;;;;;;9.20;1.67;;;;;;;;;;5047612;28;20288;-75
2022/10/16 09:11:04;;;;;;;5.90;1.60;;;;;;;;;;5049597;28;20053;-75
2022/10/16 09:13:38;;;;;;;9.23;1.63;;;;;;;;;;5050898;28;20045;-72
2022/10/16 09:16:24;;;;;;;5.95;1.65;;;;;;;;;;5051078;28;20037;-76
2022/10/16 09:18:50;;;;;;;6.82;1.95;;;;;;;;;;5055944;28;20044;-72
2022/10/16 09:21:17;;;;;;;8.73;1.90;;;;;;;;;;5071281;28;20488;-76
2022/10/16 09:23:43;;;;;;;4.93;1.48;;;;;;;;;;5070098;28;20305;-75
2022/10/16 09:26:11;;;;;;;7.85;1.70;;;;;;;;;;5071178;28;20140;-77
2022/10/16 09:28:37;;;;;;;8.32;1.30;;;;;;;;;;5068379;28;20538;-72
2022/10/16 09:31:04;;;;;;;4.70;1.40;;;;;;;;;;5053387;28;20483;-72
2022/10/16 09:33:36;;;;;;;7.10;1.60;;;;;;;;;;5049609;28;20045;-75
2022/10/16 09:36:03;;;;;;;6.00;1.52;;;;;;;;;;5050472;28;20092;-76
2022/10/16 09:38:30;;;;;;;;;;;;;;;;;;5059381;28;20051;-82
2022/10/16 09:40:57;;;;;;;7.82;1.83;;;;;;;;;;5061867;28;19928;-80
2022/10/16 09:43:35;;;;;;;5.75;1.42;;;;;;;;;;5052274;28;20056;-81
2022/10/16 09:46:03;;;;;;;5.38;1.33;;;;;;;;;;5071295;28;20059;-75
2022/10/16 09:48:47;;;;;;;7.00;1.50;;;;;;;;;;5071211;28;20048;-74
2022/10/16 09:51:25;;;;;;;4.60;1.50;;;;;;;;;;5069109;28;20052;-76
2022/10/16 09:54:11;;;;;;;5.20;1.15;;;;;;;;;;5071147;28;20056;-77
2022/10/16 09:56:41;;;;;;;8.68;1.92;;;;;;;;;;5070813;28;20049;-76
2022/10/16 09:59:10;;;;;;;5.03;1.13;;;;;;;;;;5069876;28;20047;-77
2022/10/16 10:01:38;;;;;;;4.45;1.15;;;;;;;;;;5070695;28;20044;-77
2022/10/16 10:04:05;;;;;;;6.30;1.42;;;;;;;;;;5071032;28;20053;-84
2022/10/16 10:06:37;;;;;;;5.50;1.35;;;;;;;;;;5070779;28;20048;-77
2022/10/16 10:09:06;;;;;;;4.40;1.13;;;;;;;;;;5069575;28;20491;-76
2022/10/16 10:11:40;;;;;;;5.38;1.15;;;;;;;;;;5070938;28;20048;-71
2022/10/16 10:14:26;;;;;;;4.50;0.93;;;;;;;;;;5071064;28;20048;-84
2022/10/16 10:17:02;;;;;;;6.03;0.90;;;;;;;;;;5070439;28;20052;-76
2022/10/16 10:19:28;;;;;;;4.55;1.05;;;;;;;;;;5071048;28;20051;-76
2022/10/16 10:21:58;;;;;;;3.80;0.90;;;;;;;;;;5060551;28;20496;-77
2022/10/16 10:24:24;;;;;;;3.53;0.80;;;;;;;;;;5073078;28;20400;-77
2022/10/16 10:26:54;;;;;;;3.58;0.82;;;;;;;;;;5073671;28;20062;-79
2022/10/16 10:29:20;;;;;;;5.70;0.80;;;;;;;;;;5073253;28;20052;-76
2022/10/16 10:31:55;;;;;;;3.20;0.88;;;;;;;;;;5073573;28;20048;-81
2022/10/16 10:34:36;;;;;;;4.40;0.80;;;;;;;;;;5074861;28;20056;-76
2022/10/16 10:37:06;;;;;;;4.13;0.90;;;;;;;;;;5074845;28;20064;-78
2022/10/16 10:39:38;;;;;;;5.05;1.00;;;;;;;;;;5057850;28;20045;-76
2022/10/16 10:42:10;;;;;;;4.10;0.95;;;;;;;;;;5053069;28;20045;-75
2022/10/16 10:45:00;;;;;;;3.20;1.30;;;;;;;;;;5054196;28;20049;-76
2022/10/16 10:47:26;;;;;;;5.03;1.00;;;;;;;;;;5032347;28;20040;-68
2022/10/16 10:50:13;;;;;;;4.75;0.88;;;;;;;;;;5072882;28;20047;-68
2022/10/16 10:52:47;;;;;;;5.28;0.93;;;;;;;;;;5074426;28;20055;-69
2022/10/16 10:55:23;;;;;;;3.72;1.00;;;;;;;;;;5074327;28;20057;-68
2022/10/16 10:58:09;;;;;;;4.18;1.13;;;;;;;;;;5074662;28;20049;-69
2022/10/16 11:00:47;;;;;;;3.75;1.02;;;;;;;;;;5074245;28;20423;-68
2022/10/16 11:03:32;;;;;;;4.60;1.10;;;;;;;;;;5074317;28;20048;-68
2022/10/16 11:05:59;;;;;;;5.63;1.20;;;;;;;;;;5074556;28;20075;-69
2022/10/16 11:08:32;;;;;;;3.33;1.08;;;;;;;;;;5073911;28;20041;-69
2022/10/16 11:11:01;;;;;;;4.05;1.05;;;;;;;;;;5074574;28;20090;-69
2022/10/16 11:13:30;;;;;;;5.70;1.10;;;;;;;;;;5074198;28;20500;-69
2022/10/16 11:15:59;;;;;;;2.08;0.85;;;;;;;;;;5074131;28;20049;-69
2022/10/16 11:18:44;;;;;;;5.07;1.05;;;;;;;;;;5074033;28;20044;-69
2022/10/16 11:21:12;;;;;;;2.45;1.02;;;;;;;;;;5074302;28;20052;-69
2022/10/16 11:23:54;;;;;;;5.28;1.20;;;;;;;;;;5073959;28;20127;-69
2022/10/16 11:26:24;;;;;;;5.57;1.33;;;;;;;;;;5074045;28;20051;-69
2022/10/16 11:28:55;;;;;;;3.65;1.20;;;;;;;;;;5074140;28;20044;-68
2022/10/16 11:31:25;;;;;;;5.80;1.40;;;;;;;;;;5073743;28;20135;-69
2022/10/16 11:33:59;;;;;;;3.05;1.15;;;;;;;;;;5073555;28;20059;-69
2022/10/16 11:36:38;;;;;;;3.53;1.05;;;;;;;;;;5073703;28;20092;-69
2022/10/16 11:39:07;;;;;;;5.90;1.25;;;;;;;;;;5073670;28;20055;-69
2022/10/16 11:41:33;;;;;;;4.07;0.98;;;;;;;;;;5073617;28;20049;-69
2022/10/16 11:44:06;;;;;;;3.72;1.05;;;;;;;;;;5073551;28;20048;-69
2022/10/16 11:46:33;;;;;;;8.20;1.50;;;;;;;;;;5073585;28;20057;-69
2022/10/16 11:49:22;;;;;;;4.55;1.40;;;;;;;;;;5073798;28;20063;-69
2022/10/16 11:51:54;;;;;;;6.20;1.27;;;;;;;;;;5073396;28;20064;-69
2022/10/16 11:54:24;;;;;;;6.85;1.30;;;;;;;;;;5073407;28;20054;-69
2022/10/16 11:56:53;;;;;;;4.40;1.15;;;;;;;;;;5073368;28;20057;-69
2022/10/16 11:59:23;;;;;;;4.65;1.88;;;;;;;;;;5073225;28;20488;-69
2022/10/16 12:01:57;;;;;;;5.22;1.20;;;;;;;;;;5073205;28;20060;-68
2022/10/16 12:04:33;;;;;;;7.95;1.48;;;;;;;;;;5073443;28;20051;-68
2022/10/16 12:07:00;;;;;;;6.47;2.00;;;;;;;;;;5073449;28;20059;-68
2022/10/16 12:09:31;;;;;;;4.03;1.37;;;;;;;;;;5073278;28;20048;-68
2022/10/16 12:11:57;;;;;;;6.45;1.63;;;;;;;;;;5073590;28;20071;-68
2022/10/16 12:14:34;;;;;;;7.00;2.03;;;;;;;;;;5072975;28;20062;-68
2022/10/16 12:17:31;;;;;;;8.07;1.77;;;;;;;;;;5072839;28;20070;-69
2022/10/16 12:20:14;;;;;;;7.55;1.58;;;;;;;;;;5066825;28;20041;-68
2022/10/16 12:22:48;;;;;;;10.20;1.95;;;;;;;;;;5063976;28;20048;-68
2022/10/16 12:25:28;;;;;;;8.90;1.70;;;;;;;;;;5072598;28;20407;-68
2022/10/16 12:27:55;;;;;;;7.90;1.50;;;;;;;;;;5072956;28;20063;-68
2022/10/16 12:30:23;;;;;;;7.95;1.73;;;;;;;;;;5072809;28;20051;-68
2022/10/16 12:32:53;;;;;;;7.82;1.35;;;;;;;;;;5072730;28;20397;-68
2022/10/16 12:35:22;;;;;;;4.60;1.23;;;;;;;;;;5072567;28;20048;-68
2022/10/16 12:37:49;;;;;;;7.30;1.25;;;;;;;;;;5072783;28;20041;-68
2022/10/16 12:40:21;;;;;;;6.75;1.35;;;;;;;;;;5072355;28;20135;-68
2022/10/16 12:42:48;;;;;;;5.07;1.13;;;;;;;;;;5072145;28;20103;-68
2022/10/16 12:45:26;;;;;;;4.07;1.23;;;;;;;;;;5071609;28;20103;-69
2022/10/16 12:47:54;;;;;;;5.25;1.60;;;;;;;;;;5072312;28;20059;-68
2022/10/16 12:50:30;;;;;;;4.53;1.23;;;;;;;;;;5072268;28;20055;-68
2022/10/16 12:52:57;;;;;;;5.88;1.60;;;;;;;;;;5072216;28;20052;-72
2022/10/16 12:55:24;;;;;;;;;;;;;;;;;;5072848;28;20074;-71
2022/10/16 12:57:59;;;;;;;3.92;1.40;;;;;;;;;;5072029;28;19920;-68
2022/10/16 13:00:31;;;;;;;5.63;1.35;;;;;;;;;;5071971;28;20048;-68
2022/10/16 13:03:16;;;;;;;4.82;1.50;;;;;;;;;;5062157;28;20044;-68
2022/10/16 13:05:52;;;;;;;6.30;1.45;;;;;;;;;;5052010;28;20048;-72
2022/10/16 13:08:33;;;;;;;4.15;1.40;;;;;;;;;;5067329;28;20510;-70
2022/10/16 13:11:10;;;;;;;4.80;1.27;;;;;;;;;;5054181;28;20502;-73
2022/10/16 13:13:36;;;;;;;5.97;1.35;;;;;;;;;;5051883;28;20086;-69
2022/10/16 13:16:16;;;;;;;8.02;1.80;;;;;;;;;;5062363;28;20491;-69
2022/10/16 13:18:42;;;;;;;6.10;1.20;;;;;;;;;;5048531;28;20485;-66
2022/10/16 13:21:18;;;;;;;4.45;1.02;;;;;;;;;;5048603;28;20041;-68
2022/10/16 13:23:44;;;;;;;5.32;1.35;;;;;;;;;;5051868;28;20083;-67
2022/10/16 13:26:27;;;;;;;6.93;1.95;;;;;;;;;;5051589;28;20049;-67
2022/10/16 13:28:58;;;;;;;5.22;1.20;;;;;;;;;;5051080;28;20055;-67
2022/10/16 13:31:25;;;;;;;4.28;1.42;;;;;;;;;;5051001;28;20049;-67
2022/10/16 13:33:54;;;;;;;4.90;1.48;;;;;;;;;;5051218;28;20052;-68
2022/10/16 13:36:22;;;;;;;7.57;1.40;;;;;;;;;;5050820;28;20052;-69
2022/10/16 13:38:59;;;;;;;5.00;1.38;;;;;;;;;;5051322;28;20079;-69
2022/10/16 13:41:25;;;;;;;;;;;;;;;;;;5053369;28;20048;-69
2022/10/16 13:43:53;;;;;;;5.93;1.20;;;;;;;;;;5070150;28;19943;-69
2022/10/16 13:46:24;;;;;;;9.10;1.60;;;;;;;;;;5051407;28;20053;-69
2022/10/16 13:48:58;;;;;;;5.43;1.02;;;;;;;;;;5055799;28;20044;-69
2022/10/16 13:51:24;;;;;;;5.90;1.50;;;;;;;;;;5050724;28;20055;-69
2022/10/16 13:53:51;;;;;;;5.38;1.33;;;;;;;;;;5059527;28;20040;-68
2022/10/16 13:56:19;;;;;;;3.15;1.20;;;;;;;;;;5063151;28;20041;-68
2022/10/16 13:58:47;;;;;;;5.60;1.10;;;;;;;;;;5055185;28;20052;-69
2022/10/16 14:01:16;;;;;;;4.47;1.30;;;;;;;;;;5054882;28;20534;-68
2022/10/16 14:03:43;;;;;;;5.63;1.45;;;;;;;;;;5055165;28;20052;-69
2022/10/16 14:06:17;;;;;;;6.60;1.67;;;;;;;;;;5055048;28;20051;-68
2022/10/16 14:08:45;;;;;;;4.75;1.02;;;;;;;;;;5054951;28;20048;-69
2022/10/16 14:11:12;;;;;;;6.30;1.58;;;;;;;;;;5055039;28;20045;-71
2022/10/16 14:13:47;;;;;;;7.77;1.40;;;;;;;;;;5054804;28;20487;-69
2022/10/16 14:16:18;;;;;;;6.20;1.52;;;;;;;;;;5054658;28;20572;-69
2022/10/16 14:18:46;;;;;;;6.38;1.35;;;;;;;;;;5054948;28;20053;-68
2022/10/16 14:21:14;;;;;;;6.72;1.30;;;;;;;;;;5054755;28;20136;-71
2022/10/16 14:23:41;;;;;;;9.07;1.60;;;;;;;;;;5054656;28;20123;-70
2022/10/16 14:26:10;;;;;;;9.65;1.80;;;;;;;;;;5052574;28;20394;-69
2022/10/16 14:28:37;;;;;;;7.03;1.30;;;;;;;;;;5054248;28;20412;-69
2022/10/16 14:31:22;;;;;;;9.90;2.03;;;;;;;;;;5054527;28;20496;-69
2022/10/16 14:33:49;;;;;;;5.90;1.70;;;;;;;;;;5054321;28;20159;-71
2022/10/16 14:36:17;;;;;;;6.40;1.30;;;;;;;;;;5054207;28;20052;-68
2022/10/16 14:38:58;;;;;;;7.75;1.70;;;;;;;;;;5054294;28;20053;-68
2022/10/16 14:41:25;;;;;;;7.50;1.77;;;;;;;;;;5054484;28;20052;-69
2022/10/16 14:43:53;;;;;;;6.45;1.38;;;;;;;;;;5054157;28;20056;-71
2022/10/16 14:46:21;;;;;;;4.00;0.88;;;;;;;;;;5054168;28;20556;-69
2022/10/16 14:48:56;;;;;;;6.72;1.20;;;;;;;;;;5054084;28;20060;-69
2022/10/16 14:51:23;;;;;;;8.27;1.10;;;;;;;;;;5054298;28;20059;-68
2022/10/16 14:53:49;;;;;;;9.75;1.60;;;;;;;;;;5054205;28;20049;-70
2022/10/16 14:56:20;;;;;;;11.93;1.40;;;;;;;;;;5053333;28;20591;-70
2022/10/16 14:58:47;;;;;;;7.65;1.40;;;;;;;;;;5040774;28;20047;-68